sensor_id;sensor_type;location;lat;lon;timestamp;pressure;altitude;pressure_sealevel;temperature;humidity
22605;BME280;11469;49.024;8.246;2022-08-11T00:00:02;100740.88;;;18.22;56.29
22605;BME280;11469;49.024;8.246;2022-08-11T00:02:37;100737.63;;;18.13;56.65
22605;BME280;11469;49.024;8.246;2022-08-11T00:05:07;100745.31;;;18.13;56.83
22605;BME280;11469;49.024;8.246;2022-08-11T00:07:34;100737.22;;;18.11;57.07
22605;BME280;11469;49.024;8.246;2022-08-11T00:10:10;100738.44;;;18.10;56.73
22605;BME280;11469;49.024;8.246;2022-08-11T00:12:36;100742.88;;;17.97;56.81
22605;BME280;11469;49.024;8.246;2022-08-11T00:15:02;100743.69;;;17.90;57.33
22605;BME280;11469;49.024;8.246;2022-08-11T00:17:30;100752.59;;;17.82;57.50
22605;BME280;11469;49.024;8.246;2022-08-11T00:20:06;100742.06;;;17.82;57.39
22605;BME280;11469;49.024;8.246;2022-08-11T00:22:35;100746.91;;;17.71;57.86
22605;BME280;11469;49.024;8.246;2022-08-11T00:25:09;100747.72;;;17.68;58.05
22605;BME280;11469;49.024;8.246;2022-08-11T00:27:37;100754.59;;;17.71;58.22
22605;BME280;11469;49.024;8.246;2022-08-11T00:30:05;100746.09;;;17.67;57.78
22605;BME280;11469;49.024;8.246;2022-08-11T00:32:31;100750.50;;;17.61;57.99
22605;BME280;11469;49.024;8.246;2022-08-11T00:34:57;100754.91;;;17.51;58.19
22605;BME280;11469;49.024;8.246;2022-08-11T00:37:25;100750.47;;;17.54;58.25
22605;BME280;11469;49.024;8.246;2022-08-11T00:39:54;100747.63;;;17.50;58.06
22605;BME280;11469;49.024;8.246;2022-08-11T00:42:45;100749.66;;;17.43;58.49
22605;BME280;11469;49.024;8.246;2022-08-11T00:45:38;100745.16;;;17.35;58.61
22605;BME280;11469;49.024;8.246;2022-08-11T00:55:30;100736.66;;;17.31;58.26
22605;BME280;11469;49.024;8.246;2022-08-11T01:01:07;100756.06;;;17.29;58.54
22605;BME280;11469;49.024;8.246;2022-08-11T01:03:43;100748.75;;;17.21;58.72
22605;BME280;11469;49.024;8.246;2022-08-11T01:18:32;100750.34;;;17.15;57.62
22605;BME280;11469;49.024;8.246;2022-08-11T01:51:59;100756.75;;;16.98;58.31
22605;BME280;11469;49.024;8.246;2022-08-11T01:54:33;100757.94;;;16.89;58.59
22605;BME280;11469;49.024;8.246;2022-08-11T01:57:27;100748.94;;;16.73;59.18
22605;BME280;11469;49.024;8.246;2022-08-11T02:00:13;100748.13;;;16.73;59.48
22605;BME280;11469;49.024;8.246;2022-08-11T02:02:44;100753.22;;;16.56;60.04
22605;BME280;11469;49.024;8.246;2022-08-11T02:05:56;100744.75;;;16.53;59.68
22605;BME280;11469;49.024;8.246;2022-08-11T02:08:46;100747.19;;;16.58;59.71
22605;BME280;11469;49.024;8.246;2022-08-11T02:11:27;100755.66;;;16.54;59.68
22605;BME280;11469;49.024;8.246;2022-08-11T02:25:30;100746.34;;;16.50;60.41
22605;BME280;11469;49.024;8.246;2022-08-11T02:28:05;100747.94;;;16.48;60.22
22605;BME280;11469;49.024;8.246;2022-08-11T02:30:38;100751.19;;;16.50;60.17
22605;BME280;11469;49.024;8.246;2022-08-11T02:33:19;100750.34;;;16.46;60.11
22605;BME280;11469;49.024;8.246;2022-08-11T02:36:09;100757.22;;;16.45;60.16
22605;BME280;11469;49.024;8.246;2022-08-11T02:38:42;100747.94;;;16.48;60.22
22605;BME280;11469;49.024;8.246;2022-08-11T02:44:13;100764.09;;;16.44;60.21
22605;BME280;11469;49.024;8.246;2022-08-11T02:46:52;100756.81;;;16.46;59.96
22605;BME280;11469;49.024;8.246;2022-08-11T02:49:38;100758.78;;;16.39;59.66
22605;BME280;11469;49.024;8.246;2022-08-11T02:52:36;100756.00;;;16.46;59.40
22605;BME280;11469;49.024;8.246;2022-08-11T02:55:21;100751.16;;;16.43;59.10
22605;BME280;11469;49.024;8.246;2022-08-11T02:57:57;100753.94;;;16.39;59.24
22605;BME280;11469;49.024;8.246;2022-08-11T03:00:29;100756.75;;;16.36;59.10
22605;BME280;11469;49.024;8.246;2022-08-11T03:03:20;100757.16;;;16.38;59.05
22605;BME280;11469;49.024;8.246;2022-08-11T03:11:48;100757.88;;;16.27;59.95
22605;BME280;11469;49.024;8.246;2022-08-11T03:14:47;100759.09;;;16.26;60.25
22605;BME280;11469;49.024;8.246;2022-08-11T03:20:50;100757.88;;;16.27;59.70
22605;BME280;11469;49.024;8.246;2022-08-11T03:23:28;100763.13;;;16.25;59.72
22605;BME280;11469;49.024;8.246;2022-08-11T03:34:06;100757.44;;;16.22;59.18
22605;BME280;11469;49.024;8.246;2022-08-11T03:47:55;100771.13;;;16.16;59.69
22605;BME280;11469;49.024;8.246;2022-08-11T04:01:47;100775.09;;;16.05;60.13
22605;BME280;11469;49.024;8.246;2022-08-11T04:30:50;100774.19;;;15.97;59.79
22605;BME280;11469;49.024;8.246;2022-08-11T04:57:13;100791.66;;;16.10;60.34
22605;BME280;11469;49.024;8.246;2022-08-11T05:05:34;100792.53;;;16.17;60.26
22605;BME280;11469;49.024;8.246;2022-08-11T05:13:51;100797.06;;;16.25;60.46
22605;BME280;11469;49.024;8.246;2022-08-11T05:16:47;100801.16;;;16.32;60.24
22605;BME280;11469;49.024;8.246;2022-08-11T05:19:33;100799.22;;;16.43;59.96
22605;BME280;11469;49.024;8.246;2022-08-11T05:22:18;100803.72;;;16.47;60.35
22605;BME280;11469;49.024;8.246;2022-08-11T05:25:08;100798.09;;;16.54;60.31
22605;BME280;11469;49.024;8.246;2022-08-11T05:28:04;100794.91;;;16.63;59.80
22605;BME280;11469;49.024;8.246;2022-08-11T05:30:49;100792.19;;;16.74;59.81
22605;BME280;11469;49.024;8.246;2022-08-11T05:33:48;100794.31;;;16.87;59.25
22605;BME280;11469;49.024;8.246;2022-08-11T05:36:45;100798.00;;;17.02;59.05
22605;BME280;11469;49.024;8.246;2022-08-11T05:39:21;100798.47;;;17.11;59.28
22605;BME280;11469;49.024;8.246;2022-08-11T05:42:06;100798.56;;;17.29;58.86
22605;BME280;11469;49.024;8.246;2022-08-11T05:44:54;100795.41;;;17.52;58.40
22605;BME280;11469;49.024;8.246;2022-08-11T05:47:40;100792.28;;;17.75;57.94
22605;BME280;11469;49.024;8.246;2022-08-11T05:50:25;100798.78;;;18.11;56.98
22605;BME280;11469;49.024;8.246;2022-08-11T05:53:12;100797.59;;;18.54;55.64
22605;BME280;11469;49.024;8.246;2022-08-11T05:55:58;100802.03;;;18.87;54.77
22605;BME280;11469;49.024;8.246;2022-08-11T05:58:42;100795.38;;;19.37;53.06
22605;BME280;11469;49.024;8.246;2022-08-11T06:01:24;100796.06;;;19.66;52.35
22605;BME280;11469;49.024;8.246;2022-08-11T06:03:56;100804.81;;;19.96;51.77
22605;BME280;11469;49.024;8.246;2022-08-11T06:06:50;100810.28;;;20.28;50.35
22605;BME280;11469;49.024;8.246;2022-08-11T06:14:30;100812.63;;;20.85;49.04
22605;BME280;11469;49.024;8.246;2022-08-11T06:16:59;100810.53;;;20.93;49.10
22605;BME280;11469;49.024;8.246;2022-08-11T06:19:33;100817.59;;;21.18;49.26
22605;BME280;11469;49.024;8.246;2022-08-11T06:22:00;100806.75;;;21.40;47.91
22605;BME280;11469;49.024;8.246;2022-08-11T06:24:26;100811.22;;;21.41;47.31
22605;BME280;11469;49.024;8.246;2022-08-11T06:26:54;100812.69;;;21.19;47.56
22605;BME280;11469;49.024;8.246;2022-08-11T06:29:21;100811.66;;;21.40;47.67
22605;BME280;11469;49.024;8.246;2022-08-11T06:32:00;100812.31;;;21.51;47.60
22605;BME280;11469;49.024;8.246;2022-08-11T06:37:34;100809.03;;;22.13;46.46
22605;BME280;11469;49.024;8.246;2022-08-11T06:40:15;100813.81;;;22.20;45.53
22605;BME280;11469;49.024;8.246;2022-08-11T06:42:55;100793.25;;;22.29;45.97
22605;BME280;11469;49.024;8.246;2022-08-11T06:45:54;100802.22;;;22.31;45.51
22605;BME280;11469;49.024;8.246;2022-08-11T06:48:23;100805.81;;;22.35;45.36
22605;BME280;11469;49.024;8.246;2022-08-11T06:50:56;100802.53;;;22.60;44.71
22605;BME280;11469;49.024;8.246;2022-08-11T06:53:51;100799.53;;;22.20;44.41
22605;BME280;11469;49.024;8.246;2022-08-11T06:56:44;100808.81;;;22.51;44.73
22605;BME280;11469;49.024;8.246;2022-08-11T06:59:28;100803.25;;;22.17;44.30
22605;BME280;11469;49.024;8.246;2022-08-11T07:02:23;100810.06;;;22.23;44.18
22605;BME280;11469;49.024;8.246;2022-08-11T07:04:58;100795.28;;;22.55;43.63
22605;BME280;11469;49.024;8.246;2022-08-11T07:10:59;100804.47;;;22.66;43.43
22605;BME280;11469;49.024;8.246;2022-08-11T07:13:37;100806.97;;;22.64;43.68
22605;BME280;11469;49.024;8.246;2022-08-11T07:16:28;100804.72;;;22.52;44.25
22605;BME280;11469;49.024;8.246;2022-08-11T07:19:03;100810.91;;;22.70;43.84
22605;BME280;11469;49.024;8.246;2022-08-11T07:21:48;100813.91;;;22.63;44.58
22605;BME280;11469;49.024;8.246;2022-08-11T07:24:43;100802.66;;;22.99;44.22
22605;BME280;11469;49.024;8.246;2022-08-11T07:27:36;100801.72;;;23.26;43.21
22605;BME280;11469;49.024;8.246;2022-08-11T07:30:25;100794.03;;;23.42;42.87
22605;BME280;11469;49.024;8.246;2022-08-11T07:32:52;100795.72;;;23.40;42.72
22605;BME280;11469;49.024;8.246;2022-08-11T07:35:42;100785.66;;;23.32;43.30
22605;BME280;11469;49.024;8.246;2022-08-11T07:38:21;100791.19;;;23.62;42.67
22605;BME280;11469;49.024;8.246;2022-08-11T07:40:47;100792.19;;;23.32;41.14
22605;BME280;11469;49.024;8.246;2022-08-11T07:43:13;100787.28;;;23.53;41.38
22605;BME280;11469;49.024;8.246;2022-08-11T07:45:43;100782.78;;;23.71;40.81
22605;BME280;11469;49.024;8.246;2022-08-11T07:48:28;100781.66;;;23.85;41.53
22605;BME280;11469;49.024;8.246;2022-08-11T07:51:18;100786.69;;;23.97;40.88
22605;BME280;11469;49.024;8.246;2022-08-11T07:54:04;100783.00;;;24.33;40.78
22605;BME280;11469;49.024;8.246;2022-08-11T07:56:34;100789.34;;;24.40;39.72
22605;BME280;11469;49.024;8.246;2022-08-11T07:59:01;100783.31;;;24.67;40.11
22605;BME280;11469;49.024;8.246;2022-08-11T08:01:46;100784.56;;;24.83;39.85
22605;BME280;11469;49.024;8.246;2022-08-11T08:04:32;100774.31;;;24.53;39.03
22605;BME280;11469;49.024;8.246;2022-08-11T08:07:19;100777.03;;;24.72;39.19
22605;BME280;11469;49.024;8.246;2022-08-11T08:10:06;100781.59;;;24.86;38.44
22605;BME280;11469;49.024;8.246;2022-08-11T08:12:51;100773.88;;;24.83;38.88
22605;BME280;11469;49.024;8.246;2022-08-11T08:15:35;100776.66;;;25.03;38.70
22605;BME280;11469;49.024;8.246;2022-08-11T08:18:21;100771.34;;;24.40;38.22
22605;BME280;11469;49.024;8.246;2022-08-11T08:20:48;100783.47;;;24.76;38.89
22605;BME280;11469;49.024;8.246;2022-08-11T08:23:14;100776.84;;;24.79;38.15
22605;BME280;11469;49.024;8.246;2022-08-11T08:25:41;100777.91;;;24.86;38.11
22605;BME280;11469;49.024;8.246;2022-08-11T08:28:26;100773.97;;;24.79;38.04
22605;BME280;11469;49.024;8.246;2022-08-11T08:30:52;100777.78;;;25.05;38.58
22605;BME280;11469;49.024;8.246;2022-08-11T08:33:26;100780.41;;;25.29;37.24
22605;BME280;11469;49.024;8.246;2022-08-11T08:35:57;100781.56;;;25.31;37.40
22605;BME280;11469;49.024;8.246;2022-08-11T08:38:49;100774.38;;;25.52;37.52
22605;BME280;11469;49.024;8.246;2022-08-11T08:41:24;100771.13;;;25.79;36.62
22605;BME280;11469;49.024;8.246;2022-08-11T08:43:54;100785.59;;;25.88;37.17
22605;BME280;11469;49.024;8.246;2022-08-11T08:46:25;100776.16;;;26.00;36.64
22605;BME280;11469;49.024;8.246;2022-08-11T08:48:53;100775.94;;;26.07;37.26
22605;BME280;11469;49.024;8.246;2022-08-11T08:51:20;100774.09;;;25.75;36.02
22605;BME280;11469;49.024;8.246;2022-08-11T08:54:20;100786.84;;;26.00;36.73
22605;BME280;11469;49.024;8.246;2022-08-11T08:56:48;100781.72;;;25.95;36.69
22605;BME280;11469;49.024;8.246;2022-08-11T08:59:20;100771.91;;;26.05;36.06
22605;BME280;11469;49.024;8.246;2022-08-11T09:01:57;100783.09;;;25.90;36.54
22605;BME280;11469;49.024;8.246;2022-08-11T09:04:23;100786.38;;;26.01;35.88
22605;BME280;11469;49.024;8.246;2022-08-11T09:06:50;100780.88;;;26.07;36.14
22605;BME280;11469;49.024;8.246;2022-08-11T09:09:16;100775.38;;;26.38;35.64
22605;BME280;11469;49.024;8.246;2022-08-11T09:11:42;100777.97;;;26.58;35.88
22605;BME280;11469;49.024;8.246;2022-08-11T09:16:46;100782.34;;;26.50;35.04
22605;BME280;11469;49.024;8.246;2022-08-11T09:19:14;100772.44;;;26.63;34.63
22605;BME280;11469;49.024;8.246;2022-08-11T09:21:45;100766.31;;;26.74;35.30
22605;BME280;11469;49.024;8.246;2022-08-11T09:24:32;100773.84;;;26.93;33.94
22605;BME280;11469;49.024;8.246;2022-08-11T09:27:18;100768.13;;;26.93;34.13
22605;BME280;11469;49.024;8.246;2022-08-11T09:29:44;100771.69;;;26.85;34.16
22605;BME280;11469;49.024;8.246;2022-08-11T09:32:11;100766.97;;;26.91;33.93
22605;BME280;11469;49.024;8.246;2022-08-11T09:34:37;100765.06;;;27.09;33.95
22605;BME280;11469;49.024;8.246;2022-08-11T09:37:04;100769.63;;;27.20;34.01
22605;BME280;11469;49.024;8.246;2022-08-11T09:39:49;100759.44;;;27.28;34.15
22605;BME280;11469;49.024;8.246;2022-08-11T09:42:34;100774.19;;;27.30;34.37
22605;BME280;11469;49.024;8.246;2022-08-11T09:45:19;100763.66;;;27.14;34.00
22605;BME280;11469;49.024;8.246;2022-08-11T09:47:45;100760.19;;;26.85;33.50
22605;BME280;11469;49.024;8.246;2022-08-11T09:50:13;100766.31;;;27.08;32.94
22605;BME280;11469;49.024;8.246;2022-08-11T09:52:41;100763.00;;;27.32;33.05
22605;BME280;11469;49.024;8.246;2022-08-11T09:55:07;100752.03;;;27.39;34.09
22605;BME280;11469;49.024;8.246;2022-08-11T09:57:44;100757.53;;;27.78;32.79
22605;BME280;11469;49.024;8.246;2022-08-11T10:00:30;100747.25;;;28.07;33.02
22605;BME280;11469;49.024;8.246;2022-08-11T10:02:56;100759.22;;;27.97;30.70
22605;BME280;11469;49.024;8.246;2022-08-11T10:05:23;100756.88;;;27.73;31.04
22605;BME280;11469;49.024;8.246;2022-08-11T10:08:11;100756.66;;;27.99;30.59
22605;BME280;11469;49.024;8.246;2022-08-11T10:10:38;100764.25;;;27.74;31.29
22605;BME280;11469;49.024;8.246;2022-08-11T10:13:09;100749.63;;;28.00;31.33
22605;BME280;11469;49.024;8.246;2022-08-11T10:15:36;100741.16;;;28.05;30.93
22605;BME280;11469;49.024;8.246;2022-08-11T10:18:18;100750.06;;;27.89;31.47
22605;BME280;11469;49.024;8.246;2022-08-11T10:21:12;100754.66;;;28.18;29.66
22605;BME280;11469;49.024;8.246;2022-08-11T10:23:38;100742.53;;;28.23;29.98
22605;BME280;11469;49.024;8.246;2022-08-11T10:26:25;100733.94;;;28.32;30.39
22605;BME280;11469;49.024;8.246;2022-08-11T10:29:11;100730.59;;;28.52;29.11
22605;BME280;11469;49.024;8.246;2022-08-11T10:31:57;100729.97;;;28.75;29.96
22605;BME280;11469;49.024;8.246;2022-08-11T10:34:43;100725.81;;;28.67;29.12
22605;BME280;11469;49.024;8.246;2022-08-11T10:37:09;100723.88;;;28.73;28.96
22605;BME280;11469;49.024;8.246;2022-08-11T10:39:36;100727.06;;;28.48;29.23
22605;BME280;11469;49.024;8.246;2022-08-11T10:42:03;100730.44;;;28.55;29.65
22605;BME280;11469;49.024;8.246;2022-08-11T10:44:51;100723.06;;;28.63;29.68
22605;BME280;11469;49.024;8.246;2022-08-11T10:47:18;100707.16;;;28.22;29.01
22605;BME280;11469;49.024;8.246;2022-08-11T10:50:03;100717.25;;;28.27;30.28
22605;BME280;11469;49.024;8.246;2022-08-11T10:52:49;100710.59;;;28.66;29.82
22605;BME280;11469;49.024;8.246;2022-08-11T10:55:34;100709.00;;;28.74;29.82
22605;BME280;11469;49.024;8.246;2022-08-11T10:58:20;100704.84;;;28.85;29.66
22605;BME280;11469;49.024;8.246;2022-08-11T11:01:04;100706.75;;;28.88;28.16
22605;BME280;11469;49.024;8.246;2022-08-11T11:03:31;100701.78;;;29.06;28.84
22605;BME280;11469;49.024;8.246;2022-08-11T11:06:07;100692.25;;;29.33;29.27
22605;BME280;11469;49.024;8.246;2022-08-11T11:08:42;100696.44;;;29.32;28.57
22605;BME280;11469;49.024;8.246;2022-08-11T11:11:20;100678.13;;;29.35;28.46
22605;BME280;11469;49.024;8.246;2022-08-11T11:13:49;100678.31;;;29.41;28.27
22605;BME280;11469;49.024;8.246;2022-08-11T11:16:35;100668.97;;;29.55;28.13
22605;BME280;11469;49.024;8.246;2022-08-11T11:19:22;100665.41;;;29.69;28.30
22605;BME280;11469;49.024;8.246;2022-08-11T11:21:51;100681.47;;;29.61;27.03
22605;BME280;11469;49.024;8.246;2022-08-11T11:24:39;100675.09;;;29.48;26.85
22605;BME280;11469;49.024;8.246;2022-08-11T11:35:22;100663.53;;;29.39;25.97
22605;BME280;11469;49.024;8.246;2022-08-11T11:37:51;100669.00;;;29.46;26.50
22605;BME280;11469;49.024;8.246;2022-08-11T11:40:18;100664.31;;;29.58;26.63
22605;BME280;11469;49.024;8.246;2022-08-11T11:42:53;100644.56;;;29.65;26.39
22605;BME280;11469;49.024;8.246;2022-08-11T11:45:22;100639.59;;;29.66;26.77
22605;BME280;11469;49.024;8.246;2022-08-11T11:47:51;100653.34;;;29.71;26.76
22605;BME280;11469;49.024;8.246;2022-08-11T11:50:22;100636.97;;;29.77;26.21
22605;BME280;11469;49.024;8.246;2022-08-11T11:52:50;100641.41;;;29.78;26.62
22605;BME280;11469;49.024;8.246;2022-08-11T11:55:19;100644.94;;;29.82;25.92
22605;BME280;11469;49.024;8.246;2022-08-11T11:57:45;100626.72;;;30.00;24.85
22605;BME280;11469;49.024;8.246;2022-08-11T12:00:34;100626.09;;;29.96;25.49
22605;BME280;11469;49.024;8.246;2022-08-11T12:03:19;100621.63;;;30.19;24.53
22605;BME280;11469;49.024;8.246;2022-08-11T12:05:45;100623.41;;;29.59;24.30
22605;BME280;11469;49.024;8.246;2022-08-11T12:08:12;100631.97;;;29.45;24.68
22605;BME280;11469;49.024;8.246;2022-08-11T12:10:46;100625.50;;;29.59;24.33
22605;BME280;11469;49.024;8.246;2022-08-11T12:13:15;100624.66;;;29.67;23.99
22605;BME280;11469;49.024;8.246;2022-08-11T12:16:00;100618.41;;;29.93;24.39
22605;BME280;11469;49.024;8.246;2022-08-11T12:18:30;100604.84;;;29.51;24.62
22605;BME280;11469;49.024;8.246;2022-08-11T12:20:58;100610.66;;;29.99;25.44
22605;BME280;11469;49.024;8.246;2022-08-11T12:23:24;100597.31;;;30.25;25.63
22605;BME280;11469;49.024;8.246;2022-08-11T12:26:08;100609.72;;;30.02;24.23
22605;BME280;11469;49.024;8.246;2022-08-11T12:28:52;100605.91;;;30.20;24.36
22605;BME280;11469;49.024;8.246;2022-08-11T12:31:22;100599.16;;;30.37;23.79
22605;BME280;11469;49.024;8.246;2022-08-11T12:33:50;100598.44;;;30.28;23.07
22605;BME280;11469;49.024;8.246;2022-08-11T12:36:16;100607.94;;;30.04;23.73
22605;BME280;11469;49.024;8.246;2022-08-11T12:38:46;100592.25;;;30.20;23.50
22605;BME280;11469;49.024;8.246;2022-08-11T12:41:14;100584.34;;;29.97;23.79
22605;BME280;11469;49.024;8.246;2022-08-11T12:43:59;100587.41;;;29.93;23.96
22605;BME280;11469;49.024;8.246;2022-08-11T12:46:45;100587.47;;;30.32;23.96
22605;BME280;11469;49.024;8.246;2022-08-11T12:49:19;100583.22;;;30.42;23.01
22605;BME280;11469;49.024;8.246;2022-08-11T12:52:09;100584.13;;;30.48;23.29
22605;BME280;11469;49.024;8.246;2022-08-11T12:54:44;100566.84;;;30.63;23.92
22605;BME280;11469;49.024;8.246;2022-08-11T12:57:23;100574.81;;;30.83;24.02
22605;BME280;11469;49.024;8.246;2022-08-11T13:00:08;100571.13;;;30.82;22.90
22605;BME280;11469;49.024;8.246;2022-08-11T13:02:54;100571.22;;;30.58;22.43
22605;BME280;11469;49.024;8.246;2022-08-11T13:05:40;100574.63;;;30.72;22.67
22605;BME280;11469;49.024;8.246;2022-08-11T13:08:06;100567.03;;;30.74;22.61
22605;BME280;11469;49.024;8.246;2022-08-11T13:10:32;100556.34;;;30.95;22.27
22605;BME280;11469;49.024;8.246;2022-08-11T13:13:17;100543.50;;;30.96;22.45
22605;BME280;11469;49.024;8.246;2022-08-11T13:15:47;100554.66;;;31.03;23.03
22605;BME280;11469;49.024;8.246;2022-08-11T13:18:17;100557.53;;;31.32;22.38
22605;BME280;11469;49.024;8.246;2022-08-11T13:20:57;100545.47;;;30.75;21.52
22605;BME280;11469;49.024;8.246;2022-08-11T13:23:23;100537.41;;;30.94;21.94
22605;BME280;11469;49.024;8.246;2022-08-11T13:25:52;100531.09;;;31.25;22.03
22605;BME280;11469;49.024;8.246;2022-08-11T13:28:20;100542.88;;;31.21;22.19
22605;BME280;11469;49.024;8.246;2022-08-11T13:30:48;100529.56;;;31.44;22.62
22605;BME280;11469;49.024;8.246;2022-08-11T13:33:32;100550.94;;;31.67;22.48
22605;BME280;11469;49.024;8.246;2022-08-11T13:36:00;100533.34;;;31.50;21.78
22605;BME280;11469;49.024;8.246;2022-08-11T13:38:26;100521.91;;;31.61;22.00
22605;BME280;11469;49.024;8.246;2022-08-11T13:40:53;100521.97;;;31.67;22.95
22605;BME280;11469;49.024;8.246;2022-08-11T13:43:21;100525.19;;;31.69;23.31
22605;BME280;11469;49.024;8.246;2022-08-11T13:45:48;100519.91;;;31.67;21.56
22605;BME280;11469;49.024;8.246;2022-08-11T13:48:15;100511.03;;;31.56;21.91
22605;BME280;11469;49.024;8.246;2022-08-11T13:50:43;100508.47;;;31.79;22.45
22605;BME280;11469;49.024;8.246;2022-08-11T13:53:29;100507.53;;;31.87;21.18
22605;BME280;11469;49.024;8.246;2022-08-11T13:55:56;100510.25;;;31.56;21.59
22605;BME280;11469;49.024;8.246;2022-08-11T13:58:24;100501.22;;;31.68;21.57
22605;BME280;11469;49.024;8.246;2022-08-11T14:00:51;100500.56;;;31.09;21.73
22605;BME280;11469;49.024;8.246;2022-08-11T14:03:21;100498.41;;;31.39;22.44
22605;BME280;11469;49.024;8.246;2022-08-11T14:05:49;100497.66;;;31.59;22.15
22605;BME280;11469;49.024;8.246;2022-08-11T14:08:24;100486.66;;;31.28;22.15
22605;BME280;11469;49.024;8.246;2022-08-11T14:10:51;100480.06;;;31.62;22.38
22605;BME280;11469;49.024;8.246;2022-08-11T14:13:39;100484.84;;;31.86;21.79
22605;BME280;11469;49.024;8.246;2022-08-11T14:16:10;100486.31;;;31.96;21.42
22605;BME280;11469;49.024;8.246;2022-08-11T14:18:42;100483.19;;;31.99;21.25
22605;BME280;11469;49.024;8.246;2022-08-11T14:21:10;100482.31;;;32.14;21.30
22605;BME280;11469;49.024;8.246;2022-08-11T14:23:56;100482.53;;;32.10;21.29
22605;BME280;11469;49.024;8.246;2022-08-11T14:26:24;100471.41;;;32.29;21.91
22605;BME280;11469;49.024;8.246;2022-08-11T14:29:09;100476.81;;;31.75;21.54
22605;BME280;11469;49.024;8.246;2022-08-11T14:31:49;100474.34;;;31.88;21.26
22605;BME280;11469;49.024;8.246;2022-08-11T14:34:18;100474.44;;;32.20;21.55
22605;BME280;11469;49.024;8.246;2022-08-11T14:36:48;100456.75;;;32.38;21.10
22605;BME280;11469;49.024;8.246;2022-08-11T14:39:17;100464.91;;;32.14;21.36
22605;BME280;11469;49.024;8.246;2022-08-11T14:41:46;100456.88;;;32.03;20.28
22605;BME280;11469;49.024;8.246;2022-08-11T14:44:33;100457.91;;;32.00;21.20
22605;BME280;11469;49.024;8.246;2022-08-11T14:47:19;100456.00;;;31.36;21.10
22605;BME280;11469;49.024;8.246;2022-08-11T14:49:45;100452.47;;;31.47;21.78
22605;BME280;11469;49.024;8.246;2022-08-11T14:52:13;100455.72;;;31.54;21.53
22605;BME280;11469;49.024;8.246;2022-08-11T14:54:44;100457.06;;;31.18;21.23
22605;BME280;11469;49.024;8.246;2022-08-11T14:57:31;100447.19;;;31.45;21.28
22605;BME280;11469;49.024;8.246;2022-08-11T15:00:00;100441.56;;;31.21;21.17
22605;BME280;11469;49.024;8.246;2022-08-11T15:02:28;100438.28;;;31.49;21.50
22605;BME280;11469;49.024;8.246;2022-08-11T15:05:12;100432.84;;;31.77;21.25
22605;BME280;11469;49.024;8.246;2022-08-11T15:07:38;100434.06;;;31.90;21.26
22605;BME280;11469;49.024;8.246;2022-08-11T15:10:06;100436.91;;;31.64;21.55
22605;BME280;11469;49.024;8.246;2022-08-11T15:12:33;100428.13;;;31.39;21.42
22605;BME280;11469;49.024;8.246;2022-08-11T15:15:01;100434.22;;;31.61;21.28
22605;BME280;11469;49.024;8.246;2022-08-11T15:17:46;100434.75;;;31.80;21.51
22605;BME280;11469;49.024;8.246;2022-08-11T15:20:17;100432.47;;;31.89;20.82
22605;BME280;11469;49.024;8.246;2022-08-11T15:23:02;100425.09;;;31.68;21.12
22605;BME280;11469;49.024;8.246;2022-08-11T15:26:14;100423.94;;;31.60;20.71
22605;BME280;11469;49.024;8.246;2022-08-11T15:28:45;100429.66;;;31.34;21.61
22605;BME280;11469;49.024;8.246;2022-08-11T15:31:30;100413.88;;;31.76;21.28
22605;BME280;11469;49.024;8.246;2022-08-11T15:34:11;100405.66;;;32.20;21.27
22605;BME280;11469;49.024;8.246;2022-08-11T15:36:59;100411.31;;;32.04;20.97
22605;BME280;11469;49.024;8.246;2022-08-11T15:40:00;100409.47;;;31.60;20.70
22605;BME280;11469;49.024;8.246;2022-08-11T15:42:55;100397.28;;;31.96;20.76
22605;BME280;11469;49.024;8.246;2022-08-11T15:45:40;100400.97;;;32.23;19.87
22605;BME280;11469;49.024;8.246;2022-08-11T15:48:18;100402.41;;;32.33;20.30
22605;BME280;11469;49.024;8.246;2022-08-11T15:50:48;100397.56;;;32.50;20.12
22605;BME280;11469;49.024;8.246;2022-08-11T15:53:44;100399.78;;;32.35;20.40
22605;BME280;11469;49.024;8.246;2022-08-11T15:56:11;100393.28;;;31.94;20.52
22605;BME280;11469;49.024;8.246;2022-08-11T15:58:41;100401.72;;;31.72;20.59
22605;BME280;11469;49.024;8.246;2022-08-11T16:01:25;100398.31;;;31.73;20.39
22605;BME280;11469;49.024;8.246;2022-08-11T16:04:15;100387.22;;;31.92;20.20
22605;BME280;11469;49.024;8.246;2022-08-11T16:09:22;100394.69;;;31.78;20.86
22605;BME280;11469;49.024;8.246;2022-08-11T16:11:50;100403.28;;;31.93;20.39
22605;BME280;11469;49.024;8.246;2022-08-11T16:14:17;100391.91;;;32.15;20.35
22605;BME280;11469;49.024;8.246;2022-08-11T16:17:03;100394.63;;;31.73;20.03
22605;BME280;11469;49.024;8.246;2022-08-11T16:19:30;100385.84;;;31.67;20.09
22605;BME280;11469;49.024;8.246;2022-08-11T16:21:59;100386.66;;;31.67;20.95
22605;BME280;11469;49.024;8.246;2022-08-11T16:24:25;100377.25;;;31.73;20.51
22605;BME280;11469;49.024;8.246;2022-08-11T16:26:52;100377.59;;;31.60;20.04
22605;BME280;11469;49.024;8.246;2022-08-11T16:29:20;100375.44;;;31.34;20.56
22605;BME280;11469;49.024;8.246;2022-08-11T16:31:48;100383.84;;;31.53;20.50
22605;BME280;11469;49.024;8.246;2022-08-11T16:34:37;100381.97;;;31.50;19.97
22605;BME280;11469;49.024;8.246;2022-08-11T16:37:22;100381.53;;;31.37;20.48
22605;BME280;11469;49.024;8.246;2022-08-11T16:40:07;100375.50;;;31.81;20.50
22605;BME280;11469;49.024;8.246;2022-08-11T16:42:34;100369.97;;;31.83;20.61
22605;BME280;11469;49.024;8.246;2022-08-11T16:45:18;100376.75;;;32.00;20.89
22605;BME280;11469;49.024;8.246;2022-08-11T16:48:05;100370.53;;;31.41;20.84
22605;BME280;11469;49.024;8.246;2022-08-11T16:50:32;100363.28;;;31.30;20.84
22605;BME280;11469;49.024;8.246;2022-08-11T16:52:58;100378.34;;;31.55;21.20